Time,TemperatureF,DewpointF,PressureIn,WindDirection,WindDirectionDegrees,WindSpeedMPH,WindSpeedGustMPH,Humidity,HourlyPrecipIn,Conditions,Clouds,dailyrainin,SoftwareType,DateUTC
2013-08-18 00:05:00,56.1,55.5,30.02,NNE,22,0.0,-999.0,98,-99.99,,,0.00,Acu-Link.com,2013-08-18 07:05:00,
2013-08-18 00:20:00,55.8,55.2,30.03,NNE,22,0.0,-999.0,98,-99.99,,,0.00,Acu-Link.com,2013-08-18 07:20:00,
2013-08-18 00:35:00,55.6,55.0,30.02,ENE,67,0.0,-999.0,98,-99.99,,,0.00,Acu-Link.com,2013-08-18 07:35:00,
2013-08-18 00:50:00,55.6,55.0,30.02,ESE,112,0.0,-999.0,98,-99.99,,,0.00,Acu-Link.com,2013-08-18 07:50:00,
2013-08-18 01:06:00,55.2,54.6,30.03,ESE,112,0.0,-999.0,98,-99.99,,,0.00,Acu-Link.com,2013-08-18 08:06:00,
2013-08-18 01:21:00,55.0,54.4,30.03,ESE,112,0.0,-999.0,98,-99.99,,,0.00,Acu-Link.com,2013-08-18 08:21:00,
2013-08-18 01:36:00,54.9,54.3,30.03,ESE,112,0.0,-999.0,98,-99.99,,,0.00,Acu-Link.com,2013-08-18 08:36:00,
2013-08-18 01:52:00,54.7,54.1,30.02,ESE,112,0.0,-999.0,98,-99.99,,,0.00,Acu-Link.com,2013-08-18 08:52:00,
2013-08-18 02:07:00,54.5,53.9,30.03,SE,135,0.0,-999.0,98,-99.99,,,0.00,Acu-Link.com,2013-08-18 09:07:00,
2013-08-18 02:22:00,54.0,53.4,30.02,East,90,0.0,-999.0,98,-99.99,,,0.00,Acu-Link.com,2013-08-18 09:22:00,
2013-08-18 02:37:00,53.6,53.0,30.02,ESE,112,0.0,-999.0,98,-99.99,,,0.00,Acu-Link.com,2013-08-18 09:37:00,
2013-08-18 02:52:00,53.4,52.8,30.01,ESE,112,0.0,-999.0,98,-99.99,,,0.00,Acu-Link.com,2013-08-18 09:52:00,
2013-08-18 03:07:00,53.1,52.5,30.03,East,90,0.0,-999.0,98,-99.99,,,0.00,Acu-Link.com,2013-08-18 10:07:00,
2013-08-18 03:23:00,53.1,52.5,30.02,ESE,112,0.0,-999.0,98,-99.99,,,0.00,Acu-Link.com,2013-08-18 10:23:00,
2013-08-18 03:38:00,52.7,52.2,30.01,ESE,112,0.0,-999.0,98,-99.99,,,0.00,Acu-Link.com,2013-08-18 10:38:00,
2013-08-18 03:53:00,52.5,52.0,30.02,ESE,112,0.0,-999.0,98,-99.99,,,0.00,Acu-Link.com,2013-08-18 10:53:00,
2013-08-18 04:08:00,52.5,52.0,30.03,SW,225,0.0,-999.0,98,-99.99,,,0.00,Acu-Link.com,2013-08-18 11:08:00,
2013-08-18 04:24:00,51.8,51.3,30.02,ESE,112,0.0,-999.0,98,-99.99,,,0.00,Acu-Link.com,2013-08-18 11:24:00,
2013-08-18 04:39:00,51.8,51.3,30.03,WNW,292,0.0,-999.0,98,-99.99,,,0.00,Acu-Link.com,2013-08-18 11:39:00,
2013-08-18 04:54:00,51.4,50.9,30.03,SE,135,0.0,-999.0,98,-99.99,,,0.00,Acu-Link.com,2013-08-18 11:54:00,
2013-08-18 05:10:00,51.1,50.6,30.02,ESE,112,0.0,-999.0,98,-99.99,,,0.00,Acu-Link.com,2013-08-18 12:10:00,
2013-08-18 05:25:00,51.1,50.6,30.03,ESE,112,0.0,-999.0,98,-99.99,,,0.00,Acu-Link.com,2013-08-18 12:25:00,
2013-08-18 05:41:00,50.9,50.4,30.03,ESE,112,0.0,-999.0,98,-99.99,,,0.00,Acu-Link.com,2013-08-18 12:41:00,
2013-08-18 05:56:00,50.9,50.4,30.03,ESE,112,0.0,-999.0,98,-99.99,,,0.00,Acu-Link.com,2013-08-18 12:56:00,
2013-08-18 06:11:00,51.1,50.6,30.02,ESE,112,0.0,-999.0,98,-99.99,,,0.00,Acu-Link.com,2013-08-18 13:11:00,
2013-08-18 06:26:00,51.4,50.9,30.03,SE,135,0.0,-999.0,98,-99.99,,,0.00,Acu-Link.com,2013-08-18 13:26:00,
2013-08-18 06:42:00,51.6,51.1,30.03,SE,135,0.0,-999.0,98,-99.99,,,0.00,Acu-Link.com,2013-08-18 13:42:00,
2013-08-18 06:57:00,52.9,52.4,30.02,WSW,247,0.0,-999.0,98,-99.99,,,0.00,Acu-Link.com,2013-08-18 13:57:00,
2013-08-18 07:12:00,53.2,52.6,30.03,WNW,292,0.0,-999.0,98,-99.99,,,0.00,Acu-Link.com,2013-08-18 14:12:00,
2013-08-18 07:28:00,54.0,53.4,30.05,SE,135,0.0,-999.0,98,-99.99,,,0.00,Acu-Link.com,2013-08-18 14:28:00,
2013-08-18 07:43:00,54.9,54.3,30.03,SSE,157,0.0,-999.0,98,-99.99,,,0.00,Acu-Link.com,2013-08-18 14:43:00,
2013-08-18 07:58:00,55.8,55.2,30.04,West,270,0.0,-999.0,98,-99.99,,,0.00,Acu-Link.com,2013-08-18 14:58:00,
2013-08-18 08:14:00,56.5,55.9,30.03,WSW,247,0.0,-999.0,98,-99.99,,,0.00,Acu-Link.com,2013-08-18 15:14:00,
2013-08-18 08:29:00,57.7,56.6,30.05,West,270,0.0,-999.0,96,-99.99,,,0.00,Acu-Link.com,2013-08-18 15:29:00,
2013-08-18 08:44:00,59.7,57.1,30.04,WSW,247,1.1,-999.0,91,-99.99,,,0.00,Acu-Link.com,2013-08-18 15:44:00,
2013-08-18 08:59:00,62.4,59.1,30.03,SW,225,2.2,-999.0,89,-99.99,,,0.00,Acu-Link.com,2013-08-18 15:59:00,
2013-08-18 09:15:00,61.7,58.4,30.04,West,270,0.0,-999.0,89,-99.99,,,0.00,Acu-Link.com,2013-08-18 16:15:00,
2013-08-18 09:30:00,61.3,58.0,30.04,West,270,3.7,-999.0,89,-99.99,,,0.00,Acu-Link.com,2013-08-18 16:30:00,
2013-08-18 09:45:00,63.0,59.7,30.02,SE,135,1.7,-999.0,89,-99.99,,,0.00,Acu-Link.com,2013-08-18 16:45:00,
2013-08-18 10:00:00,63.3,59.7,30.04,SW,225,4.7,-999.0,88,-99.99,,,0.00,Acu-Link.com,2013-08-18 17:00:00,
2013-08-18 10:15:00,64.4,59.5,30.04,West,270,2.7,-999.0,84,-99.99,,,0.00,Acu-Link.com,2013-08-18 17:15:00,
2013-08-18 10:30:00,66.9,61.2,30.03,West,270,3.7,-999.0,82,-99.99,,,0.00,Acu-Link.com,2013-08-18 17:30:00,
2013-08-18 10:46:00,69.4,62.2,30.02,South,180,1.1,-999.0,78,-99.99,,,0.00,Acu-Link.com,2013-08-18 17:46:00,
2013-08-18 11:01:00,70.9,62.6,30.04,WSW,247,3.2,-999.0,75,-99.99,,,0.00,Acu-Link.com,2013-08-18 18:01:00,
2013-08-18 11:16:00,72.3,62.8,30.01,SSW,202,4.2,-999.0,72,-99.99,,,0.00,Acu-Link.com,2013-08-18 18:16:00,
2013-08-18 11:31:00,75.0,63.7,30.01,NNW,337,1.7,-999.0,68,-99.99,,,0.00,Acu-Link.com,2013-08-18 18:31:00,
2013-08-18 11:47:00,77.5,63.0,30.02,NNE,22,2.7,-999.0,61,-99.99,,,0.00,Acu-Link.com,2013-08-18 18:47:00,
2013-08-18 12:02:00,77.7,63.2,30.02,West,270,6.3,-999.0,61,-99.99,,,0.00,Acu-Link.com,2013-08-18 19:02:00,
2013-08-18 12:17:00,79.2,63.1,30.00,NNE,22,3.7,-999.0,58,-99.99,,,0.00,Acu-Link.com,2013-08-18 19:17:00,
2013-08-18 12:32:00,79.5,62.9,30.00,NE,45,7.3,-999.0,57,-99.99,,,0.00,Acu-Link.com,2013-08-18 19:32:00,
2013-08-18 12:47:00,79.3,63.2,30.00,North,0,4.2,-999.0,58,-99.99,,,0.00,Acu-Link.com,2013-08-18 19:47:00,
2013-08-18 13:02:00,81.0,63.3,29.98,NE,45,4.2,-999.0,55,-99.99,,,0.00,Acu-Link.com,2013-08-18 20:02:00,
2013-08-18 13:18:00,81.0,63.3,29.98,NE,45,6.8,-999.0,55,-99.99,,,0.00,Acu-Link.com,2013-08-18 20:18:00,
2013-08-18 13:33:00,81.9,63.6,29.98,NE,45,5.3,-999.0,54,-99.99,,,0.00,Acu-Link.com,2013-08-18 20:33:00,
2013-08-18 13:48:00,81.9,64.1,29.97,NW,315,7.8,-999.0,55,-99.99,,,0.00,Acu-Link.com,2013-08-18 20:48:00,
2013-08-18 14:04:00,81.5,64.3,29.98,NNE,22,6.3,-999.0,56,-99.99,,,0.00,Acu-Link.com,2013-08-18 21:04:00,
2013-08-18 14:19:00,82.0,63.2,29.99,NNW,337,3.2,-999.0,53,-99.99,,,0.00,Acu-Link.com,2013-08-18 21:19:00,
2013-08-18 14:34:00,81.3,63.6,29.97,NNW,337,3.2,-999.0,55,-99.99,,,0.00,Acu-Link.com,2013-08-18 21:34:00,
2013-08-18 14:49:00,80.6,62.4,29.97,ESE,112,5.8,-999.0,54,-99.99,,,0.00,Acu-Link.com,2013-08-18 21:49:00,
2013-08-18 15:04:00,80.6,61.9,29.96,NNW,337,7.8,-999.0,53,-99.99,,,0.00,Acu-Link.com,2013-08-18 22:04:00,
2013-08-18 15:19:00,80.1,61.9,29.96,NW,315,7.8,-999.0,54,-99.99,,,0.00,Acu-Link.com,2013-08-18 22:19:00,
2013-08-18 15:34:00,79.9,61.7,29.98,West,270,3.2,-999.0,54,-99.99,,,0.00,Acu-Link.com,2013-08-18 22:34:00,
2013-08-18 15:49:00,77.7,60.7,29.95,SW,225,6.8,-999.0,56,-99.99,,,0.00,Acu-Link.com,2013-08-18 22:49:00,
2013-08-18 16:05:00,76.8,60.4,29.96,NNE,22,6.8,-999.0,57,-99.99,,,0.00,Acu-Link.com,2013-08-18 23:05:00,
2013-08-18 16:20:00,78.1,61.1,29.94,North,0,4.2,-999.0,56,-99.99,,,0.00,Acu-Link.com,2013-08-18 23:20:00,
2013-08-18 16:35:00,77.4,61.0,29.94,SSW,202,3.7,-999.0,57,-99.99,,,0.00,Acu-Link.com,2013-08-18 23:35:00,
2013-08-18 16:50:00,77.9,61.4,29.96,WNW,292,4.7,-999.0,57,-99.99,,,0.00,Acu-Link.com,2013-08-18 23:50:00,
2013-08-18 17:05:00,78.3,62.3,29.94,NW,315,6.3,-999.0,58,-99.99,,,0.00,Acu-Link.com,2013-08-19 00:05:00,
2013-08-18 17:20:00,77.5,61.0,29.93,ENE,67,6.3,-999.0,57,-99.99,,,0.00,Acu-Link.com,2013-08-19 00:20:00,
2013-08-18 17:35:00,76.6,60.7,29.94,ESE,112,4.2,-999.0,58,-99.99,,,0.00,Acu-Link.com,2013-08-19 00:35:00,
2013-08-18 17:50:00,75.7,60.3,29.95,NE,45,5.3,-999.0,59,-99.99,,,0.00,Acu-Link.com,2013-08-19 00:50:00,
2013-08-18 18:06:00,75.7,60.8,29.94,NE,45,5.3,-999.0,60,-99.99,,,0.00,Acu-Link.com,2013-08-19 01:06:00,
2013-08-18 18:21:00,74.3,60.0,29.94,North,0,9.4,-999.0,61,-99.99,,,0.00,Acu-Link.com,2013-08-19 01:21:00,
2013-08-18 18:36:00,73.2,60.3,29.95,West,270,5.3,-999.0,64,-99.99,,,0.00,Acu-Link.com,2013-08-19 01:36:00,
2013-08-18 18:51:00,72.5,60.5,29.94,NE,45,4.7,-999.0,66,-99.99,,,0.00,Acu-Link.com,2013-08-19 01:51:00,
2013-08-18 19:06:00,72.0,60.4,29.95,NNW,337,4.2,-999.0,67,-99.99,,,0.00,Acu-Link.com,2013-08-19 02:06:00,
2013-08-18 19:21:00,71.2,60.1,29.95,NNE,22,4.7,-999.0,68,-99.99,,,0.00,Acu-Link.com,2013-08-19 02:21:00,
2013-08-18 19:36:00,70.0,59.4,29.94,NNW,337,4.7,-999.0,69,-99.99,,,0.00,Acu-Link.com,2013-08-19 02:36:00,
2013-08-18 19:51:00,69.3,59.5,29.93,NE,45,5.3,-999.0,71,-99.99,,,0.00,Acu-Link.com,2013-08-19 02:51:00,
2013-08-18 20:06:00,68.0,59.4,29.93,NNW,337,3.2,-999.0,74,-99.99,,,0.00,Acu-Link.com,2013-08-19 03:06:00,
2013-08-18 20:22:00,67.1,59.3,29.93,NNE,22,2.2,-999.0,76,-99.99,,,0.00,Acu-Link.com,2013-08-19 03:22:00,
2013-08-18 20:37:00,66.2,59.5,29.94,East,90,0.0,-999.0,79,-99.99,,,0.00,Acu-Link.com,2013-08-19 03:37:00,
2013-08-18 20:52:00,64.9,59.3,29.95,ESE,112,0.0,-999.0,82,-99.99,,,0.00,Acu-Link.com,2013-08-19 03:52:00,
2013-08-18 21:07:00,63.7,58.8,29.95,SSE,157,0.0,-999.0,84,-99.99,,,0.00,Acu-Link.com,2013-08-19 04:07:00,
2013-08-18 21:22:00,63.3,59.0,29.96,NNE,22,1.7,-999.0,86,-99.99,,,0.00,Acu-Link.com,2013-08-19 04:22:00,
2013-08-18 21:38:00,62.4,58.5,29.96,East,90,0.0,-999.0,87,-99.99,,,0.00,Acu-Link.com,2013-08-19 04:38:00,
2013-08-18 21:53:00,61.7,58.4,29.98,ESE,112,0.0,-999.0,89,-99.99,,,0.00,Acu-Link.com,2013-08-19 04:53:00,
2013-08-18 22:10:00,61.0,58.4,29.97,North,0,0.0,-999.0,91,-99.99,,,0.00,Acu-Link.com,2013-08-19 05:10:00,
2013-08-18 22:26:00,60.8,58.2,29.98,SSE,157,0.0,-999.0,91,-99.99,,,0.00,Acu-Link.com,2013-08-19 05:26:00,
2013-08-18 22:41:00,59.7,57.7,29.98,NE,45,0.0,-999.0,93,-99.99,,,0.00,Acu-Link.com,2013-08-19 05:41:00,
2013-08-18 22:56:00,59.2,57.2,29.99,NE,45,0.0,-999.0,93,-99.99,,,0.00,Acu-Link.com,2013-08-19 05:56:00,
2013-08-18 23:12:00,58.5,56.8,29.98,ESE,112,0.0,-999.0,94,-99.99,,,0.00,Acu-Link.com,2013-08-19 06:12:00,
2013-08-18 23:27:00,57.9,56.5,29.98,ESE,112,0.0,-999.0,95,-99.99,,,0.00,Acu-Link.com,2013-08-19 06:27:00,
2013-08-18 23:42:00,57.4,56.8,30.00,ESE,112,0.0,-999.0,98,-99.99,,,0.00,Acu-Link.com,2013-08-19 06:42:00,
2013-08-18 23:58:00,57.0,56.4,29.99,ESE,112,0.0,-999.0,98,-99.99,,,0.00,Acu-Link.com,2013-08-19 06:58:00,